Weather at Sabana Dulce Airport

Public forecast

Using degrees Celsius for public forecast. Weather courtesy of forecast.io.

Closest aviation weather report (METAR) to Sabana Dulce Airport

Closest report is Guanare Airport, 14.5 nm (26.9 km) NNW.

2024/07/24 06:03 (retrieved 1 hour ago)

SVGU 240603Z AUTO ///01KT NCD ///// Q1017

Closest aviation forecast (TAF) to Sabana Dulce Airport

Forecast is more than 12 hours old.

Closest forecast is Arturo Michelena International Airport, 128.8 nm (238.6 km) NE.

2024/07/23 12:33 (retrieved 19 hours ago)

TAF TAF SVVA 231100Z 2312/2412 14003KT 9999 OVC013 TX32/2318Z TN21/2409Z TEMPO 2314/2318 07005KT 9999 BKN016 TEMPO 2320/2400 20006KT 9000 -DZ BKN016